Time;durP1;ratioP1;P1;durP2;ratioP2;P2;SDS_P1;SDS_P2;PMS_P1;PMS_P2;Temp;Humidity;BMP_temperature;BMP_pressure;BME280_temperature;BME280_humidity;BME280_pressure;Samples;Min_cycle;Max_cycle;Signal;HPM_P1;HPM_P2
2024/01/24 00:02:17;;;;;;;9.33;2.90;;;4.90;99.90;;;;;;5171663;28;20452;-50
2024/01/24 00:04:48;;;;;;;17.07;3.27;;;4.80;99.90;;;;;;5159137;28;20208;-48
2024/01/24 00:07:19;;;;;;;18.50;3.10;;;4.70;99.90;;;;;;5192158;28;20462;-48
2024/01/24 00:09:50;;;;;;;10.23;3.20;;;4.80;99.90;;;;;;5196610;28;20176;-48
2024/01/24 00:12:21;;;;;;;13.40;3.33;;;4.80;99.90;;;;;;5188874;28;20434;-48
2024/01/24 00:14:52;;;;;;;19.97;3.53;;;4.90;99.90;;;;;;5219501;28;20205;-50
2024/01/24 00:17:22;;;;;;;8.70;2.77;;;4.80;99.90;;;;;;5168793;28;20494;-48
2024/01/24 00:19:53;;;;;;;14.30;2.63;;;4.80;99.90;;;;;;5206104;28;20179;-48
2024/01/24 00:22:24;;;;;;;11.57;2.90;;;4.80;99.90;;;;;;5209338;28;20626;-48
2024/01/24 00:24:55;;;;;;;13.53;3.60;;;4.80;99.90;;;;;;5160943;28;20211;-51
2024/01/24 00:27:26;;;;;;;20.93;3.23;;;5.00;99.90;;;;;;5197781;28;20218;-48
2024/01/24 00:29:57;;;;;;;12.90;2.87;;;4.90;99.90;;;;;;5201960;28;21006;-48
2024/01/24 00:32:28;;;;;;;11.23;3.57;;;5.10;99.90;;;;;;5215553;28;20680;-47
2024/01/24 00:34:58;;;;;;;13.00;3.03;;;5.00;99.90;;;;;;5206164;28;20208;-48
2024/01/24 00:37:29;;;;;;;8.63;2.93;;;4.90;99.90;;;;;;5206266;28;20654;-49
2024/01/24 00:40:00;;;;;;;6.23;3.40;;;4.90;99.90;;;;;;5202964;28;20188;-49
2024/01/24 00:42:31;;;;;;;9.97;2.87;;;5.10;99.90;;;;;;5174533;28;20197;-47
2024/01/24 00:45:02;;;;;;;7.53;2.57;;;5.00;99.90;;;;;;5186338;28;20685;-51
2024/01/24 00:47:32;;;;;;;6.07;2.70;;;5.10;99.90;;;;;;5167365;28;20206;-50
2024/01/24 00:50:04;;;;;;;8.47;2.20;;;5.10;99.90;;;;;;5237333;28;20255;-48
2024/01/24 00:52:36;;;;;;;10.67;3.40;;;5.10;99.90;;;;;;5195601;28;20211;-48
2024/01/24 00:55:07;;;;;;;9.67;3.00;;;5.10;99.90;;;;;;5207052;28;20456;-50
2024/01/24 00:57:39;;;;;;;8.37;2.77;;;5.20;99.90;;;;;;5198315;28;20440;-50
2024/01/24 01:00:10;;;;;;;8.50;2.47;;;5.20;99.90;;;;;;5204250;28;20517;-49
2024/01/24 01:02:43;;;;;;;6.60;2.73;;;5.20;99.90;;;;;;5203077;28;20480;-50
2024/01/24 01:05:13;;;;;;;18.30;3.20;;;5.10;99.90;;;;;;5222810;28;20439;-48
2024/01/24 01:07:44;;;;;;;10.00;3.00;;;5.20;99.90;;;;;;5229216;28;20985;-49
2024/01/24 01:10:15;;;;;;;8.83;2.73;;;5.30;99.90;;;;;;5210615;28;20174;-51
2024/01/24 01:12:46;;;;;;;5.40;2.70;;;5.40;99.90;;;;;;5200116;28;20171;-51
2024/01/24 01:15:17;;;;;;;16.67;3.43;;;5.40;99.90;;;;;;5220915;28;20541;-49
2024/01/24 01:17:48;;;;;;;7.30;2.90;;;5.30;99.90;;;;;;5215030;28;20192;-49
2024/01/24 01:20:21;;;;;;;9.17;3.00;;;5.40;99.90;;;;;;5193286;28;20226;-49
2024/01/24 01:22:52;;;;;;;8.43;2.17;;;5.40;99.90;;;;;;5248776;28;20252;-48
2024/01/24 01:25:23;;;;;;;8.10;2.43;;;5.50;99.90;;;;;;5229938;28;20556;-49
2024/01/24 01:27:53;;;;;;;13.20;2.30;;;5.50;99.90;;;;;;5247798;28;20204;-47
2024/01/24 01:30:24;;;;;;;10.37;2.40;;;5.50;99.90;;;;;;5199306;28;20190;-47
2024/01/24 01:32:55;;;;;;;6.73;1.90;;;5.50;99.90;;;;;;5187668;28;20179;-49
2024/01/24 01:35:26;;;;;;;6.40;1.80;;;5.40;99.90;;;;;;5213163;28;20607;-49
2024/01/24 01:37:57;;;;;;;6.10;2.00;;;5.50;99.90;;;;;;5192354;28;20193;-49
2024/01/24 01:40:28;;;;;;;1.77;1.67;;;5.50;99.90;;;;;;5228565;28;20443;-48
2024/01/24 01:42:59;;;;;;;8.90;2.70;;;5.50;99.90;;;;;;5200997;28;20211;-48
2024/01/24 01:45:30;;;;;;;4.77;2.17;;;5.60;99.90;;;;;;5177332;28;20467;-48
2024/01/24 01:48:00;;;;;;;7.20;1.87;;;5.60;99.90;;;;;;5211408;28;20202;-49
2024/01/24 01:50:31;;;;;;;13.97;3.00;;;5.60;99.90;;;;;;5214955;28;20586;-48
2024/01/24 01:53:04;;;;;;;6.37;1.87;;;5.60;99.90;;;;;;5212096;28;20423;-48
2024/01/24 01:55:36;;;;;;;5.27;2.63;;;5.60;99.90;;;;;;5235704;28;20459;-48
2024/01/24 01:58:07;;;;;;;2.60;1.73;;;5.70;99.90;;;;;;5211626;28;20440;-48
2024/01/24 02:00:39;;;;;;;4.40;1.97;;;5.80;99.90;;;;;;5140761;28;20439;-48
2024/01/24 02:03:11;;;;;;;2.07;1.97;;;5.80;99.90;;;;;;5203544;28;20189;-48
2024/01/24 02:05:44;;;;;;;7.73;2.50;;;5.80;99.90;;;;;;5196339;28;20873;-47
2024/01/24 02:08:15;;;;;;;6.43;2.83;;;5.80;99.90;;;;;;5219268;28;20476;-48
2024/01/24 02:10:48;;;;;;;6.93;2.30;;;5.80;99.90;;;;;;5225713;28;20441;-48
2024/01/24 02:13:20;;;;;;;2.40;1.60;;;5.90;99.90;;;;;;5208688;28;20224;-49
2024/01/24 02:15:51;;;;;;;4.03;2.33;;;5.90;99.90;;;;;;5239412;28;20476;-48
2024/01/24 02:18:21;;;;;;;3.70;2.47;;;5.90;99.90;;;;;;5200131;28;20499;-48
2024/01/24 02:20:52;;;;;;;6.40;1.93;;;6.00;99.90;;;;;;5212936;28;20208;-47
2024/01/24 02:23:25;;;;;;;3.20;2.30;;;5.90;99.90;;;;;;5231287;28;20216;-49
2024/01/24 02:25:57;;;;;;;10.80;2.50;;;6.00;99.90;;;;;;5193187;28;20457;-47
2024/01/24 02:28:28;;;;;;;3.57;2.03;;;5.90;99.90;;;;;;5218770;28;20488;-48
2024/01/24 02:30:59;;;;;;;2.80;1.33;;;6.00;99.90;;;;;;5230243;28;20425;-47
2024/01/24 02:33:29;;;;;;;2.13;2.03;;;6.00;99.90;;;;;;5190096;28;20436;-46
2024/01/24 02:36:00;;;;;;;7.70;1.93;;;6.00;99.90;;;;;;5205240;28;20194;-47
2024/01/24 02:38:31;;;;;;;5.77;2.53;;;6.10;99.90;;;;;;5217344;28;20197;-47
2024/01/24 02:41:02;;;;;;;6.23;2.90;;;6.10;99.90;;;;;;5217688;28;20651;-47
2024/01/24 02:43:35;;;;;;;4.47;2.53;;;6.00;99.90;;;;;;5189807;28;20186;-48
2024/01/24 02:46:06;;;;;;;4.10;2.50;;;6.10;99.90;;;;;;5210775;28;20203;-47
2024/01/24 02:48:37;;;;;;;3.53;2.53;;;6.20;99.90;;;;;;5242848;28;20465;-46
2024/01/24 02:51:08;;;;;;;5.23;2.27;;;6.10;99.90;;;;;;5216434;28;20186;-47
2024/01/24 02:53:39;;;;;;;3.80;2.00;;;6.20;99.90;;;;;;5199425;28;20250;-46
2024/01/24 02:56:10;;;;;;;5.00;2.80;;;6.20;99.90;;;;;;5182054;28;20214;-46
2024/01/24 02:58:40;;;;;;;2.90;2.67;;;6.20;99.90;;;;;;5190107;28;20490;-46
2024/01/24 03:01:12;;;;;;;4.67;2.67;;;6.30;99.90;;;;;;5194126;28;20185;-47
2024/01/24 03:03:45;;;;;;;12.80;2.70;;;6.30;99.90;;;;;;5220228;28;20936;-47
2024/01/24 03:06:16;;;;;;;6.10;2.37;;;6.30;99.90;;;;;;5202748;28;20444;-48
2024/01/24 03:08:54;;;;;;;5.03;2.67;;;6.30;99.90;;;;;;5228006;28;20451;-49
2024/01/24 03:11:25;;;;;;;4.00;2.30;;;6.40;99.90;;;;;;5241842;28;20244;-46
2024/01/24 03:13:56;;;;;;;7.03;3.40;;;6.40;99.90;;;;;;5218655;28;20408;-47
2024/01/24 03:16:27;;;;;;;2.87;1.83;;;6.50;99.90;;;;;;5200001;28;20437;-47
2024/01/24 03:18:58;;;;;;;5.83;2.27;;;6.60;99.90;;;;;;5215870;28;20428;-47
2024/01/24 03:21:29;;;;;;;5.70;3.17;;;6.50;99.90;;;;;;5182261;28;20213;-47
2024/01/24 03:24:00;;;;;;;4.20;2.27;;;6.50;99.90;;;;;;5219354;28;20193;-46
2024/01/24 03:26:30;;;;;;;6.80;1.63;;;6.60;99.90;;;;;;5205705;28;20267;-47
2024/01/24 03:29:02;;;;;;;6.90;2.50;;;6.60;99.90;;;;;;5221576;28;20269;-45
2024/01/24 03:31:32;;;;;;;5.30;2.30;;;6.60;99.90;;;;;;5190951;28;20178;-47
2024/01/24 03:34:03;;;;;;;7.57;2.10;;;6.60;99.90;;;;;;5176309;28;20875;-47
2024/01/24 03:36:34;;;;;;;5.07;1.60;;;6.70;99.90;;;;;;5203542;28;20193;-46
2024/01/24 03:39:04;;;;;;;8.63;2.53;;;6.70;99.90;;;;;;5188288;28;20756;-46
2024/01/24 03:41:38;;;;;;;4.20;2.67;;;6.70;99.90;;;;;;5193304;28;20205;-45
2024/01/24 03:44:09;;;;;;;6.57;2.93;;;6.70;99.90;;;;;;5195362;28;20563;-46
2024/01/24 03:46:40;;;;;;;3.80;1.83;;;6.80;99.90;;;;;;5196890;28;20464;-47
2024/01/24 03:49:10;;;;;;;2.40;2.20;;;6.80;99.90;;;;;;5180560;28;20169;-47
2024/01/24 03:51:41;;;;;;;6.73;2.20;;;6.70;99.90;;;;;;5164445;28;20193;-47
2024/01/24 03:54:12;;;;;;;2.93;2.50;;;6.80;99.90;;;;;;5188015;28;20558;-46
2024/01/24 03:56:43;;;;;;;6.00;2.57;;;6.80;99.90;;;;;;5205592;28;20802;-46
2024/01/24 03:59:14;;;;;;;9.23;3.07;;;6.80;99.90;;;;;;5200178;28;20420;-47
2024/01/24 04:01:45;;;;;;;1.97;1.83;;;6.90;99.90;;;;;;5212035;28;20239;-47
2024/01/24 04:04:15;;;;;;;3.17;2.03;;;6.80;99.90;;;;;;5176645;28;20464;-47
2024/01/24 04:06:47;;;;;;;3.07;2.20;;;7.00;99.90;;;;;;5192538;28;20270;-47
2024/01/24 04:09:17;;;;;;;8.67;2.67;;;7.00;99.90;;;;;;5173533;28;20174;-48
2024/01/24 04:11:48;;;;;;;3.70;1.97;;;7.00;99.90;;;;;;5190705;28;20492;-48
2024/01/24 04:14:19;;;;;;;2.47;2.27;;;7.00;99.90;;;;;;5233360;28;20206;-47
2024/01/24 04:16:49;;;;;;;9.33;2.97;;;7.00;99.90;;;;;;5196794;28;20174;-46
2024/01/24 04:19:20;;;;;;;1.40;1.30;;;7.10;99.90;;;;;;5211316;28;20189;-46
2024/01/24 04:21:51;;;;;;;6.47;2.53;;;7.00;99.90;;;;;;5228193;28;20174;-48
2024/01/24 04:24:22;;;;;;;11.30;2.40;;;7.10;99.90;;;;;;5172621;28;20755;-46
2024/01/24 04:26:52;;;;;;;13.10;2.33;;;7.10;99.90;;;;;;5200125;28;20213;-47
2024/01/24 04:29:23;;;;;;;10.70;2.87;;;7.10;99.90;;;;;;5205096;28;20194;-47
2024/01/24 04:31:54;;;;;;;2.97;2.43;;;7.20;99.90;;;;;;5210338;28;20177;-47
2024/01/24 04:34:25;;;;;;;3.33;1.97;;;7.20;99.90;;;;;;5216055;28;20278;-48
2024/01/24 04:36:55;;;;;;;3.37;2.20;;;7.20;99.90;;;;;;5208894;28;20189;-47
2024/01/24 04:39:26;;;;;;;8.07;2.93;;;7.30;99.90;;;;;;5232632;28;20562;-47
2024/01/24 04:41:58;;;;;;;8.40;2.20;;;7.40;99.90;;;;;;5190319;28;20250;-47
2024/01/24 04:44:28;;;;;;;6.07;1.57;;;7.40;99.90;;;;;;5224156;28;20198;-47
2024/01/24 04:46:59;;;;;;;7.10;2.27;;;7.40;99.90;;;;;;5190403;28;20539;-47
2024/01/24 04:49:30;;;;;;;8.77;2.70;;;7.50;99.90;;;;;;5182158;28;20173;-47
2024/01/24 04:52:02;;;;;;;6.63;2.30;;;7.50;99.90;;;;;;5165190;28;20637;-47
2024/01/24 04:54:35;;;;;;;6.93;2.20;;;7.60;99.90;;;;;;5196180;28;20202;-48
2024/01/24 04:57:06;;;;;;;8.00;2.33;;;7.60;99.90;;;;;;5223629;28;20442;-48
2024/01/24 04:59:37;;;;;;;3.23;2.33;;;7.60;99.90;;;;;;5175976;28;20431;-49
2024/01/24 05:02:08;;;;;;;3.40;1.90;;;7.60;99.90;;;;;;5205015;28;20182;-48
2024/01/24 05:04:39;;;;;;;5.77;2.50;;;7.70;99.90;;;;;;5223970;28;20206;-47
2024/01/24 05:07:09;;;;;;;8.37;3.07;;;7.80;99.90;;;;;;5172334;28;20467;-48
2024/01/24 05:09:40;;;;;;;1.70;1.60;;;7.90;99.90;;;;;;5194018;28;20193;-47
2024/01/24 05:12:11;;;;;;;5.70;2.63;;;7.90;99.90;;;;;;5160991;28;20182;-47
2024/01/24 05:14:42;;;;;;;11.47;2.67;;;8.00;99.90;;;;;;5231414;28;20704;-46
2024/01/24 05:17:13;;;;;;;3.87;2.20;;;8.10;99.90;;;;;;5247435;28;20425;-47
2024/01/24 05:19:44;;;;;;;5.57;2.17;;;8.10;99.90;;;;;;5220030;28;20448;-48
2024/01/24 05:22:15;;;;;;;4.27;1.97;;;8.20;99.90;;;;;;5229905;28;20646;-47
2024/01/24 05:24:46;;;;;;;4.93;2.30;;;8.30;99.90;;;;;;5240830;28;20202;-47
2024/01/24 05:27:18;;;;;;;12.33;1.97;;;8.40;99.90;;;;;;5227266;28;20467;-49
2024/01/24 05:29:49;;;;;;;6.97;3.00;;;8.40;99.90;;;;;;5231652;28;20178;-48
2024/01/24 05:32:20;;;;;;;2.40;2.07;;;8.40;99.90;;;;;;5177684;28;20432;-46
2024/01/24 05:34:50;;;;;;;2.60;2.27;;;8.50;99.90;;;;;;5203218;28;20194;-47
2024/01/24 05:37:21;;;;;;;3.67;2.23;;;8.50;99.90;;;;;;5232324;28;20635;-48
2024/01/24 05:39:52;;;;;;;2.50;1.53;;;8.40;99.90;;;;;;5217143;28;20529;-47
2024/01/24 05:42:23;;;;;;;10.60;2.40;;;8.50;99.90;;;;;;5227845;28;20197;-46
2024/01/24 05:44:54;;;;;;;4.40;2.37;;;8.50;99.90;;;;;;5240384;28;20440;-46
2024/01/24 05:47:24;;;;;;;1.90;1.80;;;8.50;99.90;;;;;;5236471;28;20203;-48
2024/01/24 05:49:55;;;;;;;10.17;2.70;;;8.50;99.90;;;;;;5194477;28;20190;-48
2024/01/24 05:52:26;;;;;;;5.20;2.10;;;8.60;99.90;;;;;;5200124;28;20183;-47
2024/01/24 05:54:56;;;;;;;4.57;1.70;;;8.60;99.90;;;;;;5188204;28;20225;-47
2024/01/24 05:57:27;;;;;;;5.20;2.27;;;8.60;99.90;;;;;;5217303;28;20562;-46
2024/01/24 05:59:58;;;;;;;10.60;2.30;;;8.60;99.90;;;;;;5230437;28;20182;-47
2024/01/24 06:02:28;;;;;;;4.77;1.67;;;8.70;99.90;;;;;;5231300;28;20235;-48
2024/01/24 06:04:59;;;;;;;2.40;1.30;;;8.70;99.90;;;;;;5211704;28;20219;-46
2024/01/24 06:07:31;;;;;;;3.80;1.70;;;8.80;99.90;;;;;;5168846;28;20296;-47
2024/01/24 06:10:01;;;;;;;2.97;1.43;;;8.80;99.90;;;;;;5243146;28;20177;-48
2024/01/24 06:12:32;;;;;;;4.27;1.40;;;8.80;99.90;;;;;;5188807;28;20942;-47
2024/01/24 06:15:03;;;;;;;3.53;2.27;;;8.80;99.90;;;;;;5180170;28;20607;-47
2024/01/24 06:17:34;;;;;;;7.17;2.63;;;8.90;99.90;;;;;;5230299;28;20189;-47
2024/01/24 06:20:06;;;;;;;1.50;1.40;;;8.90;99.90;;;;;;5215607;28;20437;-47
2024/01/24 06:22:37;;;;;;;2.20;1.70;;;8.80;99.90;;;;;;5206516;28;20546;-47
2024/01/24 06:25:08;;;;;;;6.60;1.77;;;8.90;99.90;;;;;;5185056;28;20460;-46
2024/01/24 06:27:39;;;;;;;3.73;1.67;;;8.90;99.90;;;;;;5181867;28;20210;-47
2024/01/24 06:30:10;;;;;;;1.63;1.47;;;9.00;99.90;;;;;;5221239;28;20413;-47
2024/01/24 06:32:41;;;;;;;2.73;2.10;;;9.00;99.90;;;;;;5187413;28;20178;-46
2024/01/24 06:35:12;;;;;;;3.50;1.83;;;9.00;99.90;;;;;;5195813;28;20452;-46
2024/01/24 06:37:42;;;;;;;2.90;1.63;;;8.90;99.90;;;;;;5245975;28;20174;-48
2024/01/24 06:40:14;;;;;;;2.20;1.40;;;9.00;99.90;;;;;;5161092;28;20178;-46
2024/01/24 06:42:45;;;;;;;8.53;2.13;;;8.90;99.90;;;;;;5175225;28;20544;-47
2024/01/24 06:45:16;;;;;;;1.43;1.33;;;8.90;99.90;;;;;;5185233;28;20474;-47
2024/01/24 06:47:47;;;;;;;3.70;2.07;;;9.00;99.90;;;;;;5207484;28;20956;-47
2024/01/24 06:50:18;;;;;;;2.83;1.30;;;9.10;99.90;;;;;;5197826;28;20189;-48
2024/01/24 06:52:49;;;;;;;2.03;1.83;;;9.10;99.90;;;;;;5216406;28;20979;-48
2024/01/24 06:55:20;;;;;;;2.20;1.90;;;9.20;99.90;;;;;;5207323;28;20202;-48
2024/01/24 06:57:51;;;;;;;4.47;1.83;;;9.20;99.90;;;;;;5179568;28;20202;-51
2024/01/24 07:00:21;;;;;;;3.80;1.40;;;9.20;99.90;;;;;;5193410;28;20493;-51
2024/01/24 07:02:52;;;;;;;4.10;1.50;;;9.30;99.90;;;;;;5183030;28;20189;-50
2024/01/24 07:05:23;;;;;;;8.27;2.60;;;9.30;99.90;;;;;;5159222;28;20211;-48
2024/01/24 07:07:53;;;;;;;1.90;1.37;;;9.30;99.90;;;;;;5177300;28;20301;-48
2024/01/24 07:10:24;;;;;;;3.50;1.70;;;9.40;99.90;;;;;;5138097;28;20248;-51
2024/01/24 07:12:56;;;;;;;8.70;2.17;;;9.30;99.90;;;;;;5143369;28;20189;-49
2024/01/24 07:15:26;;;;;;;14.23;2.00;;;9.20;99.90;;;;;;5171312;28;20296;-51
2024/01/24 07:17:57;;;;;;;7.37;2.37;;;9.20;99.90;;;;;;5162486;28;20439;-49
2024/01/24 07:20:29;;;;;;;8.20;2.53;;;9.00;99.90;;;;;;5160724;28;20200;-49
2024/01/24 07:23:01;;;;;;;16.60;3.17;;;9.00;99.90;;;;;;5157168;28;20189;-49
2024/01/24 07:25:32;;;;;;;16.70;2.17;;;8.90;99.90;;;;;;5221197;28;20456;-49
2024/01/24 07:28:03;;;;;;;18.50;3.53;;;8.90;99.90;;;;;;5166252;28;20468;-49
2024/01/24 07:30:33;;;;;;;10.43;2.87;;;8.90;99.90;;;;;;5164295;28;20204;-48
2024/01/24 07:33:05;;;;;;;10.20;2.17;;;8.90;99.90;;;;;;5153484;28;20264;-49
2024/01/24 07:35:36;;;;;;;12.47;2.87;;;8.80;99.90;;;;;;5178882;28;20687;-48
2024/01/24 07:38:07;;;;;;;14.33;2.60;;;8.80;99.90;;;;;;5183220;28;20432;-50
2024/01/24 07:40:37;;;;;;;18.57;2.90;;;8.80;99.90;;;;;;5209002;28;20264;-50
2024/01/24 07:43:08;;;;;;;26.43;3.70;;;8.70;99.90;;;;;;5173842;28;20440;-47
2024/01/24 07:45:39;;;;;;;18.43;2.80;;;8.70;99.90;;;;;;5152812;28;21377;-48
2024/01/24 07:48:13;;;;;;;27.93;3.67;;;8.80;99.90;;;;;;5144374;28;20252;-49
2024/01/24 07:50:44;;;;;;;31.50;4.07;;;8.80;99.90;;;;;;5147064;28;20615;-49
2024/01/24 07:53:15;;;;;;;17.77;3.90;;;8.90;99.90;;;;;;5167640;28;20439;-51
2024/01/24 07:55:46;;;;;;;27.23;4.33;;;8.90;99.90;;;;;;5202015;28;20646;-49
2024/01/24 07:58:16;;;;;;;11.27;3.10;;;8.90;99.90;;;;;;5197733;28;20193;-49
2024/01/24 08:00:47;;;;;;;32.20;4.30;;;8.90;99.90;;;;;;5181566;28;20201;-48
2024/01/24 08:03:19;;;;;;;19.47;3.93;;;8.90;99.90;;;;;;5152587;28;20747;-49
2024/01/24 08:05:50;;;;;;;23.57;3.23;;;8.90;99.90;;;;;;5148455;28;20243;-50
2024/01/24 08:08:20;;;;;;;23.53;4.20;;;9.00;99.90;;;;;;5183220;28;20480;-48
2024/01/24 08:10:51;;;;;;;15.83;3.53;;;8.90;99.90;;;;;;5165167;28;20189;-48
2024/01/24 08:13:22;;;;;;;10.77;3.67;;;8.90;99.90;;;;;;5201023;28;20240;-49
2024/01/24 08:15:52;;;;;;;21.80;4.97;;;9.00;99.90;;;;;;5179869;28;20194;-48
2024/01/24 08:18:24;;;;;;;14.57;3.10;;;9.00;99.90;;;;;;5189833;28;20190;-48
2024/01/24 08:20:55;;;;;;;15.23;3.23;;;8.90;99.90;;;;;;5202532;28;20189;-51
2024/01/24 08:23:26;;;;;;;28.07;4.90;;;8.90;99.90;;;;;;5197336;28;20457;-49
2024/01/24 08:25:56;;;;;;;16.80;4.17;;;8.90;99.90;;;;;;5190198;28;21013;-48
2024/01/24 08:28:27;;;;;;;13.40;4.00;;;9.10;99.90;;;;;;5181837;28;20210;-48
2024/01/24 08:30:58;;;;;;;21.90;3.77;;;9.40;99.90;;;;;;5180905;28;20257;-48
2024/01/24 08:33:32;;;;;;;14.47;3.60;;;9.70;99.90;;;;;;5143140;28;20213;-48
2024/01/24 08:36:03;;;;;;;16.30;3.33;;;9.80;99.90;;;;;;5184516;28;20453;-48
2024/01/24 08:38:33;;;;;;;15.40;3.00;;;9.80;99.90;;;;;;5176742;28;20507;-48
2024/01/24 08:41:04;;;;;;;7.47;2.77;;;9.90;99.90;;;;;;5154294;28;20546;-50
2024/01/24 08:43:35;;;;;;;20.30;3.60;;;10.00;99.90;;;;;;5168094;28;20309;-48
2024/01/24 08:46:06;;;;;;;19.17;3.17;;;9.90;99.90;;;;;;5171048;28;20267;-48
2024/01/24 08:48:37;;;;;;;11.67;2.47;;;10.00;99.90;;;;;;5177229;28;20320;-48
2024/01/24 08:51:08;;;;;;;15.63;3.03;;;10.00;99.90;;;;;;5209758;28;20186;-49
2024/01/24 08:53:38;;;;;;;13.13;3.53;;;9.90;99.90;;;;;;5205959;28;20190;-48
2024/01/24 08:56:12;;;;;;;18.00;2.63;;;9.80;99.90;;;;;;5147222;28;20787;-48
2024/01/24 08:58:43;;;;;;;5.60;1.37;;;9.60;99.90;;;;;;5191051;28;20638;-49
2024/01/24 09:01:14;;;;;;;8.90;2.97;;;9.50;99.90;;;;;;5158876;28;20436;-48
2024/01/24 09:03:46;;;;;;;9.27;2.63;;;9.30;99.90;;;;;;5161973;28;20190;-49
2024/01/24 09:06:25;;;;;;;24.77;3.00;;;9.30;99.90;;;;;;5165797;28;20437;-49
2024/01/24 09:08:56;;;;;;;15.87;2.73;;;9.30;99.90;;;;;;5159351;28;20470;-49
2024/01/24 09:11:26;;;;;;;13.37;3.27;;;9.10;99.90;;;;;;5172123;28;20566;-48
2024/01/24 09:13:58;;;;;;;10.40;2.83;;;9.00;99.90;;;;;;5166877;28;20940;-48
2024/01/24 09:16:29;;;;;;;18.73;2.67;;;9.00;99.90;;;;;;5190555;28;20186;-48
2024/01/24 09:18:59;;;;;;;18.03;3.97;;;8.90;99.90;;;;;;5224294;28;20438;-49
2024/01/24 09:21:30;;;;;;;15.83;2.47;;;8.80;99.90;;;;;;5187721;28;20212;-48
2024/01/24 09:24:01;;;;;;;17.27;3.60;;;8.80;99.90;;;;;;5200854;28;20282;-49
2024/01/24 09:26:32;;;;;;;20.17;2.63;;;8.70;99.90;;;;;;5161567;28;20437;-48
2024/01/24 09:29:02;;;;;;;13.63;2.23;;;8.70;99.90;;;;;;5171659;28;20233;-48
2024/01/24 09:31:33;;;;;;;7.30;2.20;;;8.80;99.90;;;;;;5168797;28;20189;-49
2024/01/24 09:34:04;;;;;;;9.53;3.33;;;8.80;99.90;;;;;;5175138;28;20618;-50
2024/01/24 09:36:35;;;;;;;12.07;2.37;;;8.90;99.90;;;;;;5176059;28;20279;-49
2024/01/24 09:39:07;;;;;;;14.77;3.23;;;8.90;99.90;;;;;;5184408;28;20178;-53
2024/01/24 09:41:40;;;;;;;13.50;3.17;;;9.00;99.90;;;;;;5165119;28;20292;-48
2024/01/24 09:44:14;;;;;;;7.30;2.93;;;9.00;99.90;;;;;;5177544;28;20447;-48
2024/01/24 09:46:49;;;;;;;7.00;2.20;;;9.10;99.90;;;;;;5183654;28;20816;-48
2024/01/24 09:49:20;;;;;;;19.57;3.70;;;9.10;99.90;;;;;;5228553;28;20534;-50
2024/01/24 09:51:52;;;;;;;18.50;2.93;;;9.20;99.90;;;;;;5171495;28;21595;-49
2024/01/24 09:54:24;;;;;;;13.40;3.00;;;9.20;99.90;;;;;;5176924;28;20474;-49
2024/01/24 09:56:55;;;;;;;24.07;4.00;;;9.30;99.90;;;;;;5171887;28;20460;-48
2024/01/24 09:59:25;;;;;;;12.47;3.10;;;9.30;99.90;;;;;;5155011;28;20952;-49
2024/01/24 10:01:57;;;;;;;15.37;4.00;;;9.30;99.90;;;;;;5179277;28;20445;-48
2024/01/24 10:04:36;;;;;;;17.67;3.30;;;9.50;99.90;;;;;;5163647;28;20564;-50
2024/01/24 10:07:08;;;;;;;12.00;2.70;;;9.50;99.90;;;;;;5180021;28;20507;-50
2024/01/24 10:09:39;;;;;;;15.67;2.90;;;9.60;99.90;;;;;;5191531;28;20440;-48
2024/01/24 10:12:10;;;;;;;11.93;2.80;;;9.60;99.90;;;;;;5195305;28;20425;-48
2024/01/24 10:14:41;;;;;;;16.70;3.13;;;9.60;99.90;;;;;;5178226;28;20297;-47
2024/01/24 10:17:13;;;;;;;19.90;3.40;;;9.80;99.90;;;;;;5169368;28;20441;-48
2024/01/24 10:19:44;;;;;;;7.97;2.87;;;9.90;99.90;;;;;;5177569;28;20185;-49
2024/01/24 10:22:15;;;;;;;16.93;3.13;;;9.90;99.90;;;;;;5150793;28;20446;-50
2024/01/24 10:24:46;;;;;;;24.90;3.10;;;10.00;99.90;;;;;;5159985;28;20451;-49
2024/01/24 10:27:17;;;;;;;14.87;3.83;;;9.90;99.90;;;;;;5195831;28;20229;-49
2024/01/24 10:29:48;;;;;;;16.40;3.40;;;10.00;99.90;;;;;;5200050;28;20271;-49
2024/01/24 10:32:20;;;;;;;32.57;4.13;;;9.90;99.90;;;;;;5178249;28;20542;-49
2024/01/24 10:34:51;;;;;;;15.77;3.63;;;10.00;99.90;;;;;;5162558;28;20819;-48
2024/01/24 10:37:22;;;;;;;12.20;3.07;;;10.20;99.90;;;;;;5169821;28;20438;-48
2024/01/24 10:39:54;;;;;;;8.67;3.43;;;10.20;99.90;;;;;;5178729;28;20566;-49
2024/01/24 10:42:28;;;;;;;12.13;3.97;;;10.20;99.90;;;;;;5169000;28;20445;-50
2024/01/24 10:45:03;;;;;;;23.70;5.00;;;10.20;99.90;;;;;;5186211;28;20535;-49
2024/01/24 10:47:34;;;;;;;21.03;4.27;;;10.10;99.90;;;;;;5182819;28;20472;-49
2024/01/24 10:50:09;;;;;;;14.10;3.83;;;10.10;99.90;;;;;;5178173;28;20811;-49
2024/01/24 10:52:44;;;;;;;12.50;3.13;;;10.10;99.90;;;;;;5147941;28;20451;-48
2024/01/24 10:55:17;;;;;;;17.30;3.97;;;10.10;99.90;;;;;;5145577;28;20530;-49
2024/01/24 10:57:48;;;;;;;31.13;6.10;;;10.10;99.90;;;;;;5147498;28;20473;-50
2024/01/24 11:00:22;;;;;;;21.77;4.03;;;10.10;99.90;;;;;;5151936;28;20954;-49
2024/01/24 11:02:54;;;;;;;24.23;4.50;;;10.20;99.90;;;;;;5148826;28;20444;-48
2024/01/24 11:05:40;;;;;;;20.97;3.90;;;10.30;99.90;;;;;;5229107;28;20483;-48
2024/01/24 11:08:15;;;;;;;24.80;4.60;;;10.50;99.90;;;;;;5147429;28;20559;-50
2024/01/24 11:10:48;;;;;;;30.40;4.50;;;10.60;99.90;;;;;;5147037;28;20440;-50
2024/01/24 11:13:19;;;;;;;24.60;4.40;;;10.60;99.90;;;;;;5136252;28;20446;-49
2024/01/24 11:15:51;;;;;;;23.73;4.87;;;10.60;99.90;;;;;;5169955;28;20448;-50
2024/01/24 11:18:24;;;;;;;28.90;4.63;;;10.60;99.90;;;;;;5185931;28;20425;-47
2024/01/24 11:21:00;;;;;;;15.30;3.20;;;10.70;99.90;;;;;;5171439;28;20446;-48
2024/01/24 11:23:40;;;;;;;18.53;4.97;;;10.90;99.90;;;;;;5163851;28;20872;-48
2024/01/24 11:26:31;;;;;;;19.57;4.00;;;11.00;99.90;;;;;;5201743;28;20443;-46
2024/01/24 11:29:12;;;;;;;11.93;3.67;;;11.00;99.90;;;;;;5164231;28;20446;-47
2024/01/24 11:31:44;;;;;;;33.00;4.40;;;11.10;99.90;;;;;;5179527;28;20525;-48
2024/01/24 11:34:15;;;;;;;10.57;3.40;;;11.20;99.90;;;;;;5169714;28;20453;-49
2024/01/24 11:36:50;;;;;;;12.33;3.67;;;11.20;99.90;;;;;;5177847;28;20441;-50
2024/01/24 11:39:33;;;;;;;12.07;3.10;;;11.20;99.90;;;;;;5158027;28;20460;-52
2024/01/24 11:42:36;;;;;;;14.90;3.60;;;11.10;99.90;;;;;;5175007;28;20440;-53
2024/01/24 11:45:17;;;;;;;15.73;2.93;;;11.30;99.90;;;;;;5151104;28;20455;-51
2024/01/24 11:47:48;;;;;;;11.60;3.20;;;11.30;99.90;;;;;;5182539;28;20484;-49
2024/01/24 11:50:19;;;;;;;14.70;3.40;;;11.40;99.90;;;;;;5177193;28;20449;-51
2024/01/24 11:52:57;;;;;;;12.40;2.80;;;11.40;99.90;;;;;;5172008;28;20456;-48
2024/01/24 11:55:28;;;;;;;19.77;3.73;;;11.30;99.90;;;;;;5145482;28;20450;-50
2024/01/24 11:58:02;;;;;;;21.30;3.70;;;11.40;99.90;;;;;;5153001;28;20979;-50
2024/01/24 12:00:33;;;;;;;16.67;3.73;;;11.50;99.90;;;;;;5148256;28;20437;-48
2024/01/24 12:03:05;;;;;;;15.77;4.13;;;11.70;99.90;;;;;;5149799;28;20445;-50
2024/01/24 12:05:36;;;;;;;15.57;4.10;;;11.80;99.90;;;;;;5135972;28;20236;-51
2024/01/24 12:08:08;;;;;;;21.97;3.80;;;11.80;99.90;;;;;;5161912;28;20495;-52
2024/01/24 12:10:39;;;;;;;12.97;3.83;;;11.80;99.90;;;;;;5175260;28;20179;-51
2024/01/24 12:13:11;;;;;;;10.67;3.53;;;11.80;99.90;;;;;;5163746;28;20456;-51
2024/01/24 12:15:42;;;;;;;15.93;3.47;;;11.80;99.90;;;;;;5204490;28;20957;-51
2024/01/24 12:18:14;;;;;;;10.37;3.27;;;11.70;99.90;;;;;;5169327;28;20519;-51
2024/01/24 12:20:47;;;;;;;14.77;3.47;;;11.80;99.90;;;;;;5227937;28;20437;-50
2024/01/24 12:23:18;;;;;;;10.40;3.40;;;11.70;99.90;;;;;;5150148;28;20847;-48
2024/01/24 12:25:49;;;;;;;13.20;3.33;;;11.60;99.90;;;;;;5148711;28;20473;-50
2024/01/24 12:28:20;;;;;;;18.30;3.57;;;11.50;99.90;;;;;;5153973;28;20543;-51
2024/01/24 12:30:53;;;;;;;10.87;4.20;;;11.50;99.90;;;;;;5153420;28;20177;-51
2024/01/24 12:33:23;;;;;;;18.90;4.23;;;11.50;99.90;;;;;;5149085;28;20243;-52
2024/01/24 12:35:54;;;;;;;14.80;3.30;;;11.50;99.90;;;;;;5147084;28;20460;-50
2024/01/24 12:38:26;;;;;;;7.83;3.10;;;11.40;99.90;;;;;;5150068;28;20181;-51
2024/01/24 12:40:57;;;;;;;17.43;3.90;;;11.40;99.90;;;;;;5153993;28;20186;-53
2024/01/24 12:43:28;;;;;;;23.37;4.77;;;11.40;99.90;;;;;;5150792;28;20453;-51
2024/01/24 12:46:05;;;;;;;19.37;3.70;;;11.50;99.90;;;;;;5141107;28;20196;-53
2024/01/24 12:48:36;;;;;;;18.77;3.90;;;11.40;99.90;;;;;;5156478;28;20274;-50
2024/01/24 12:51:07;;;;;;;12.27;3.60;;;11.40;99.90;;;;;;5151626;28;20428;-49
2024/01/24 12:53:38;;;;;;;19.87;4.50;;;11.40;99.90;;;;;;5148318;28;20445;-52
2024/01/24 12:56:09;;;;;;;17.03;3.17;;;11.30;99.90;;;;;;5151444;28;20224;-51
2024/01/24 12:58:40;;;;;;;10.70;3.40;;;11.30;99.90;;;;;;5146189;28;20186;-52
2024/01/24 13:01:11;;;;;;;12.43;3.57;;;11.30;99.90;;;;;;5145789;28;20193;-50
2024/01/24 13:03:42;;;;;;;15.63;4.53;;;11.40;99.90;;;;;;5148269;28;20177;-50
2024/01/24 13:06:15;;;;;;;21.33;4.20;;;11.30;99.90;;;;;;5148026;28;20190;-52
2024/01/24 13:08:45;;;;;;;20.97;4.40;;;11.30;99.90;;;;;;5147121;28;20541;-51
2024/01/24 13:11:16;;;;;;;19.93;4.20;;;11.40;99.90;;;;;;5147119;28;20487;-50
2024/01/24 13:13:47;;;;;;;12.00;3.50;;;11.30;99.90;;;;;;5148709;28;20211;-50